Terminal Aerodrome Forecast
Issued by NWS

Home | Current Version | Previous Version | Graphics & Text | Print | Product List | Glossary On
Versions: 1 2 3 4 5 6 7 8 9 10 11 12 13 14 15 16 17 18
000
FTUS43 KLSX 302016 AAA
TAFSUS
TAF AMD
KSUS 302016Z 3020/3118 13006KT P6SM VCTS SCT050CB BKN120
      TEMPO 3021/3022 4SM -TSRA BKN040CB
     FM310100 VRB03KT P6SM SCT100 BKN250
     FM311500 13006KT P6SM SCT040 BKN100=

USA.gov is the U.S. government's official web portal to all federal, state and local government web resources and services.